sensor_id;sensor_type;location;lat;lon;timestamp;temperature;humidity
13817;DHT22;6979;52.116;5.286;2022-09-13T00:00:35;23.80;99.90
13817;DHT22;6979;52.116;5.286;2022-09-13T00:03:03;23.80;99.90
13817;DHT22;6979;52.116;5.286;2022-09-13T00:05:30;23.70;99.90
13817;DHT22;6979;52.116;5.286;2022-09-13T00:07:57;23.70;99.90
13817;DHT22;6979;52.116;5.286;2022-09-13T00:10:24;23.70;99.90
13817;DHT22;6979;52.116;5.286;2022-09-13T00:12:52;23.70;99.90
13817;DHT22;6979;52.116;5.286;2022-09-13T00:15:20;23.60;99.90
13817;DHT22;6979;52.116;5.286;2022-09-13T00:17:48;23.60;99.90
13817;DHT22;6979;52.116;5.286;2022-09-13T00:20:15;23.60;99.90
13817;DHT22;6979;52.116;5.286;2022-09-13T00:22:42;23.60;99.90
13817;DHT22;6979;52.116;5.286;2022-09-13T00:25:09;23.50;99.90
13817;DHT22;6979;52.116;5.286;2022-09-13T00:27:36;23.50;99.90
13817;DHT22;6979;52.116;5.286;2022-09-13T00:30:03;23.50;99.90
13817;DHT22;6979;52.116;5.286;2022-09-13T00:32:30;23.50;99.90
13817;DHT22;6979;52.116;5.286;2022-09-13T00:34:58;23.50;99.90
13817;DHT22;6979;52.116;5.286;2022-09-13T00:37:28;23.50;99.90
13817;DHT22;6979;52.116;5.286;2022-09-13T00:39:54;23.50;99.90
13817;DHT22;6979;52.116;5.286;2022-09-13T00:42:24;23.50;99.90
13817;DHT22;6979;52.116;5.286;2022-09-13T00:44:57;23.50;99.90
13817;DHT22;6979;52.116;5.286;2022-09-13T00:47:31;23.50;99.90
13817;DHT22;6979;52.116;5.286;2022-09-13T00:50:06;23.50;99.90
13817;DHT22;6979;52.116;5.286;2022-09-13T00:52:34;23.50;99.90
13817;DHT22;6979;52.116;5.286;2022-09-13T00:55:05;23.50;99.90
13817;DHT22;6979;52.116;5.286;2022-09-13T00:57:34;23.50;99.90
13817;DHT22;6979;52.116;5.286;2022-09-13T01:00:05;23.50;99.90
13817;DHT22;6979;52.116;5.286;2022-09-13T01:02:39;23.50;99.90
13817;DHT22;6979;52.116;5.286;2022-09-13T01:05:08;23.50;99.90
13817;DHT22;6979;52.116;5.286;2022-09-13T01:07:36;23.50;99.90
13817;DHT22;6979;52.116;5.286;2022-09-13T01:10:05;23.50;99.90
13817;DHT22;6979;52.116;5.286;2022-09-13T01:12:36;23.50;99.90
13817;DHT22;6979;52.116;5.286;2022-09-13T01:15:06;23.50;99.90
13817;DHT22;6979;52.116;5.286;2022-09-13T01:17:33;23.50;99.90
13817;DHT22;6979;52.116;5.286;2022-09-13T01:20:01;23.40;99.90
13817;DHT22;6979;52.116;5.286;2022-09-13T01:26:09;23.40;99.90
13817;DHT22;6979;52.116;5.286;2022-09-13T01:29:03;23.40;99.90
13817;DHT22;6979;52.116;5.286;2022-09-13T01:31:39;23.40;99.90
13817;DHT22;6979;52.116;5.286;2022-09-13T01:34:24;23.40;99.90
13817;DHT22;6979;52.116;5.286;2022-09-13T01:37:02;23.40;99.90
13817;DHT22;6979;52.116;5.286;2022-09-13T01:40:01;23.40;99.90
13817;DHT22;6979;52.116;5.286;2022-09-13T01:42:48;23.40;99.90
13817;DHT22;6979;52.116;5.286;2022-09-13T01:45:26;23.30;99.90
13817;DHT22;6979;52.116;5.286;2022-09-13T01:47:58;23.30;99.90
13817;DHT22;6979;52.116;5.286;2022-09-13T01:50:34;23.30;99.90
13817;DHT22;6979;52.116;5.286;2022-09-13T01:53:06;23.30;99.90
13817;DHT22;6979;52.116;5.286;2022-09-13T01:55:38;23.30;99.90
13817;DHT22;6979;52.116;5.286;2022-09-13T01:58:17;23.30;99.90
13817;DHT22;6979;52.116;5.286;2022-09-13T02:00:50;23.30;99.90
13817;DHT22;6979;52.116;5.286;2022-09-13T02:03:26;23.30;99.90
13817;DHT22;6979;52.116;5.286;2022-09-13T02:05:57;23.30;99.90
13817;DHT22;6979;52.116;5.286;2022-09-13T02:08:33;23.30;99.90
13817;DHT22;6979;52.116;5.286;2022-09-13T02:11:07;23.30;99.90
13817;DHT22;6979;52.116;5.286;2022-09-13T02:13:37;23.30;99.90
13817;DHT22;6979;52.116;5.286;2022-09-13T02:16:10;23.30;99.90
13817;DHT22;6979;52.116;5.286;2022-09-13T02:18:41;23.30;99.90
13817;DHT22;6979;52.116;5.286;2022-09-13T02:21:12;23.20;99.90
13817;DHT22;6979;52.116;5.286;2022-09-13T02:23:43;23.20;99.90
13817;DHT22;6979;52.116;5.286;2022-09-13T02:26:13;23.20;99.90
13817;DHT22;6979;52.116;5.286;2022-09-13T02:28:44;23.20;99.90
13817;DHT22;6979;52.116;5.286;2022-09-13T02:31:15;23.20;99.90
13817;DHT22;6979;52.116;5.286;2022-09-13T02:33:50;23.20;99.90
13817;DHT22;6979;52.116;5.286;2022-09-13T02:36:21;23.20;99.90
13817;DHT22;6979;52.116;5.286;2022-09-13T02:38:51;23.20;99.90
13817;DHT22;6979;52.116;5.286;2022-09-13T02:41:24;23.20;99.90
13817;DHT22;6979;52.116;5.286;2022-09-13T02:44:00;23.20;99.90
13817;DHT22;6979;52.116;5.286;2022-09-13T02:46:38;23.20;99.90
13817;DHT22;6979;52.116;5.286;2022-09-13T02:49:12;23.20;99.90
13817;DHT22;6979;52.116;5.286;2022-09-13T02:51:48;23.20;99.90
13817;DHT22;6979;52.116;5.286;2022-09-13T02:54:23;23.20;99.90
13817;DHT22;6979;52.116;5.286;2022-09-13T02:56:55;23.20;99.90
13817;DHT22;6979;52.116;5.286;2022-09-13T02:59:24;23.20;99.90
13817;DHT22;6979;52.116;5.286;2022-09-13T03:01:56;23.20;99.90
13817;DHT22;6979;52.116;5.286;2022-09-13T03:04:26;23.20;99.90
13817;DHT22;6979;52.116;5.286;2022-09-13T03:06:53;23.20;99.90
13817;DHT22;6979;52.116;5.286;2022-09-13T03:09:20;23.20;99.90
13817;DHT22;6979;52.116;5.286;2022-09-13T03:12:04;23.20;99.90
13817;DHT22;6979;52.116;5.286;2022-09-13T03:14:42;23.20;99.90
13817;DHT22;6979;52.116;5.286;2022-09-13T03:17:28;23.20;99.90
13817;DHT22;6979;52.116;5.286;2022-09-13T03:20:09;23.10;99.90
13817;DHT22;6979;52.116;5.286;2022-09-13T03:25:45;23.10;99.90
13817;DHT22;6979;52.116;5.286;2022-09-13T03:28:25;23.10;99.90
13817;DHT22;6979;52.116;5.286;2022-09-13T03:30:59;23.10;99.90
13817;DHT22;6979;52.116;5.286;2022-09-13T03:33:31;23.00;99.90
13817;DHT22;6979;52.116;5.286;2022-09-13T03:42:49;22.90;99.90
13817;DHT22;6979;52.116;5.286;2022-09-13T03:45:20;22.90;99.90
13817;DHT22;6979;52.116;5.286;2022-09-13T03:47:50;22.90;99.90
13817;DHT22;6979;52.116;5.286;2022-09-13T03:50:20;22.90;99.90
13817;DHT22;6979;52.116;5.286;2022-09-13T03:52:56;22.90;99.90
13817;DHT22;6979;52.116;5.286;2022-09-13T03:55:24;22.90;99.90
13817;DHT22;6979;52.116;5.286;2022-09-13T03:57:53;22.80;99.90
13817;DHT22;6979;52.116;5.286;2022-09-13T04:00:20;22.80;99.90
13817;DHT22;6979;52.116;5.286;2022-09-13T04:02:47;22.80;99.90
13817;DHT22;6979;52.116;5.286;2022-09-13T04:05:14;22.80;99.90
13817;DHT22;6979;52.116;5.286;2022-09-13T04:07:41;22.80;99.90
13817;DHT22;6979;52.116;5.286;2022-09-13T04:10:08;22.80;99.90
13817;DHT22;6979;52.116;5.286;2022-09-13T04:12:36;22.80;99.90
13817;DHT22;6979;52.116;5.286;2022-09-13T04:15:05;22.80;99.90
13817;DHT22;6979;52.116;5.286;2022-09-13T04:17:33;22.80;99.90
13817;DHT22;6979;52.116;5.286;2022-09-13T04:20:01;22.80;99.90
13817;DHT22;6979;52.116;5.286;2022-09-13T04:22:28;22.80;99.90
13817;DHT22;6979;52.116;5.286;2022-09-13T04:24:55;22.80;99.90
13817;DHT22;6979;52.116;5.286;2022-09-13T04:27:22;22.80;99.90
13817;DHT22;6979;52.116;5.286;2022-09-13T04:29:50;22.80;99.90
13817;DHT22;6979;52.116;5.286;2022-09-13T04:32:18;22.80;99.90
13817;DHT22;6979;52.116;5.286;2022-09-13T04:34:45;22.80;99.90
13817;DHT22;6979;52.116;5.286;2022-09-13T04:37:12;22.80;99.90
13817;DHT22;6979;52.116;5.286;2022-09-13T04:39:39;22.80;99.90
13817;DHT22;6979;52.116;5.286;2022-09-13T04:42:06;22.80;99.90
13817;DHT22;6979;52.116;5.286;2022-09-13T04:44:32;22.80;99.90
13817;DHT22;6979;52.116;5.286;2022-09-13T04:46:59;22.80;99.90
13817;DHT22;6979;52.116;5.286;2022-09-13T04:49:27;22.80;99.90
13817;DHT22;6979;52.116;5.286;2022-09-13T04:51:56;22.80;99.90
13817;DHT22;6979;52.116;5.286;2022-09-13T04:54:23;22.80;99.90
13817;DHT22;6979;52.116;5.286;2022-09-13T04:56:50;22.80;99.90
13817;DHT22;6979;52.116;5.286;2022-09-13T04:59:18;22.80;99.90
13817;DHT22;6979;52.116;5.286;2022-09-13T05:01:45;22.80;99.90
13817;DHT22;6979;52.116;5.286;2022-09-13T05:04:13;22.80;99.90
13817;DHT22;6979;52.116;5.286;2022-09-13T05:06:41;22.80;99.90
13817;DHT22;6979;52.116;5.286;2022-09-13T05:09:12;22.80;99.90
13817;DHT22;6979;52.116;5.286;2022-09-13T05:11:40;22.80;99.90
13817;DHT22;6979;52.116;5.286;2022-09-13T05:14:09;22.80;99.90
13817;DHT22;6979;52.116;5.286;2022-09-13T05:16:38;22.80;99.90
13817;DHT22;6979;52.116;5.286;2022-09-13T05:19:08;22.80;99.90
13817;DHT22;6979;52.116;5.286;2022-09-13T05:21:35;22.90;99.90
13817;DHT22;6979;52.116;5.286;2022-09-13T05:24:04;22.90;99.90
13817;DHT22;6979;52.116;5.286;2022-09-13T05:26:30;22.90;99.90
13817;DHT22;6979;52.116;5.286;2022-09-13T05:29:00;22.90;99.90
13817;DHT22;6979;52.116;5.286;2022-09-13T05:31:28;22.90;99.90
13817;DHT22;6979;52.116;5.286;2022-09-13T05:33:58;22.90;99.90
13817;DHT22;6979;52.116;5.286;2022-09-13T05:36:25;22.90;99.90
13817;DHT22;6979;52.116;5.286;2022-09-13T05:38:52;22.90;99.90
13817;DHT22;6979;52.116;5.286;2022-09-13T05:41:21;22.90;99.90
13817;DHT22;6979;52.116;5.286;2022-09-13T05:43:48;22.90;99.90
13817;DHT22;6979;52.116;5.286;2022-09-13T05:46:16;22.90;99.90
13817;DHT22;6979;52.116;5.286;2022-09-13T05:48:44;23.00;99.90
13817;DHT22;6979;52.116;5.286;2022-09-13T05:51:12;22.90;99.90
13817;DHT22;6979;52.116;5.286;2022-09-13T05:53:41;23.00;99.90
13817;DHT22;6979;52.116;5.286;2022-09-13T05:56:09;23.00;99.90
13817;DHT22;6979;52.116;5.286;2022-09-13T05:58:39;23.00;99.90
13817;DHT22;6979;52.116;5.286;2022-09-13T06:01:06;23.00;99.90
13817;DHT22;6979;52.116;5.286;2022-09-13T06:03:34;23.00;99.90
13817;DHT22;6979;52.116;5.286;2022-09-13T06:06:02;23.00;99.90
13817;DHT22;6979;52.116;5.286;2022-09-13T06:08:31;23.00;99.90
13817;DHT22;6979;52.116;5.286;2022-09-13T06:10:59;23.00;99.90
13817;DHT22;6979;52.116;5.286;2022-09-13T06:13:27;23.00;99.90
13817;DHT22;6979;52.116;5.286;2022-09-13T06:15:57;23.00;99.90
13817;DHT22;6979;52.116;5.286;2022-09-13T06:18:24;23.10;99.90
13817;DHT22;6979;52.116;5.286;2022-09-13T06:20:56;23.10;99.90
13817;DHT22;6979;52.116;5.286;2022-09-13T06:23:23;23.10;99.90
13817;DHT22;6979;52.116;5.286;2022-09-13T06:25:49;23.20;99.90
13817;DHT22;6979;52.116;5.286;2022-09-13T06:28:17;23.20;99.90
13817;DHT22;6979;52.116;5.286;2022-09-13T06:30:44;23.20;99.90
13817;DHT22;6979;52.116;5.286;2022-09-13T06:33:13;23.30;99.90
13817;DHT22;6979;52.116;5.286;2022-09-13T06:35:40;23.30;99.90
13817;DHT22;6979;52.116;5.286;2022-09-13T06:38:06;23.40;99.90
13817;DHT22;6979;52.116;5.286;2022-09-13T06:40:33;23.40;99.90
13817;DHT22;6979;52.116;5.286;2022-09-13T06:43:00;23.40;99.90
13817;DHT22;6979;52.116;5.286;2022-09-13T06:45:27;23.50;99.90
13817;DHT22;6979;52.116;5.286;2022-09-13T06:47:54;23.50;99.90
13817;DHT22;6979;52.116;5.286;2022-09-13T06:50:22;23.60;99.90
13817;DHT22;6979;52.116;5.286;2022-09-13T06:52:49;23.60;99.90
13817;DHT22;6979;52.116;5.286;2022-09-13T06:55:16;23.70;99.90
13817;DHT22;6979;52.116;5.286;2022-09-13T06:57:43;23.70;99.90
13817;DHT22;6979;52.116;5.286;2022-09-13T07:00:11;23.80;99.90
13817;DHT22;6979;52.116;5.286;2022-09-13T07:02:38;23.80;99.90
13817;DHT22;6979;52.116;5.286;2022-09-13T07:05:05;23.90;99.90
13817;DHT22;6979;52.116;5.286;2022-09-13T07:07:34;23.90;99.90
13817;DHT22;6979;52.116;5.286;2022-09-13T07:10:00;24.00;99.90
13817;DHT22;6979;52.116;5.286;2022-09-13T07:12:27;24.00;99.90
13817;DHT22;6979;52.116;5.286;2022-09-13T07:14:54;24.10;99.90
13817;DHT22;6979;52.116;5.286;2022-09-13T07:17:21;24.20;99.90
13817;DHT22;6979;52.116;5.286;2022-09-13T07:19:47;24.20;99.90
13817;DHT22;6979;52.116;5.286;2022-09-13T07:22:17;24.30;99.90
13817;DHT22;6979;52.116;5.286;2022-09-13T07:24:45;24.30;99.90
13817;DHT22;6979;52.116;5.286;2022-09-13T07:27:12;24.40;99.90
13817;DHT22;6979;52.116;5.286;2022-09-13T07:29:41;24.40;99.90
13817;DHT22;6979;52.116;5.286;2022-09-13T07:32:08;24.50;99.90
13817;DHT22;6979;52.116;5.286;2022-09-13T07:34:35;24.50;99.90
13817;DHT22;6979;52.116;5.286;2022-09-13T07:37:02;24.60;99.90
13817;DHT22;6979;52.116;5.286;2022-09-13T07:39:29;24.70;99.90
13817;DHT22;6979;52.116;5.286;2022-09-13T07:41:57;24.70;99.90
13817;DHT22;6979;52.116;5.286;2022-09-13T07:44:24;24.80;99.90
13817;DHT22;6979;52.116;5.286;2022-09-13T07:46:51;24.80;99.90
13817;DHT22;6979;52.116;5.286;2022-09-13T07:49:18;24.90;99.90
13817;DHT22;6979;52.116;5.286;2022-09-13T07:51:47;25.00;99.90
13817;DHT22;6979;52.116;5.286;2022-09-13T07:54:17;25.10;99.90
13817;DHT22;6979;52.116;5.286;2022-09-13T07:56:44;25.20;99.90
13817;DHT22;6979;52.116;5.286;2022-09-13T07:59:14;25.20;99.90
13817;DHT22;6979;52.116;5.286;2022-09-13T08:01:42;25.30;99.90
13817;DHT22;6979;52.116;5.286;2022-09-13T08:04:12;25.40;99.90
13817;DHT22;6979;52.116;5.286;2022-09-13T08:06:39;25.50;99.90
13817;DHT22;6979;52.116;5.286;2022-09-13T08:09:08;25.50;99.90
13817;DHT22;6979;52.116;5.286;2022-09-13T08:11:37;25.60;99.90
13817;DHT22;6979;52.116;5.286;2022-09-13T08:14:05;25.70;99.90
13817;DHT22;6979;52.116;5.286;2022-09-13T08:16:34;25.70;99.90
13817;DHT22;6979;52.116;5.286;2022-09-13T08:19:03;25.80;99.90
13817;DHT22;6979;52.116;5.286;2022-09-13T08:21:34;25.90;99.90
13817;DHT22;6979;52.116;5.286;2022-09-13T08:24:04;26.00;99.90
13817;DHT22;6979;52.116;5.286;2022-09-13T08:26:32;26.10;99.90
13817;DHT22;6979;52.116;5.286;2022-09-13T08:29:02;26.10;99.90
13817;DHT22;6979;52.116;5.286;2022-09-13T08:31:30;26.20;99.90
13817;DHT22;6979;52.116;5.286;2022-09-13T08:33:58;26.30;99.90
13817;DHT22;6979;52.116;5.286;2022-09-13T08:36:26;26.30;99.90
13817;DHT22;6979;52.116;5.286;2022-09-13T08:38:54;26.40;99.90
13817;DHT22;6979;52.116;5.286;2022-09-13T08:41:38;26.40;99.90
13817;DHT22;6979;52.116;5.286;2022-09-13T08:44:16;26.50;99.90
13817;DHT22;6979;52.116;5.286;2022-09-13T08:46:44;26.60;99.90
13817;DHT22;6979;52.116;5.286;2022-09-13T08:49:16;26.70;99.90
13817;DHT22;6979;52.116;5.286;2022-09-13T08:51:46;26.80;99.90
13817;DHT22;6979;52.116;5.286;2022-09-13T08:54:15;26.80;99.90
13817;DHT22;6979;52.116;5.286;2022-09-13T08:56:47;26.90;99.90
13817;DHT22;6979;52.116;5.286;2022-09-13T08:59:37;27.00;99.90
13817;DHT22;6979;52.116;5.286;2022-09-13T09:02:20;27.10;99.90
13817;DHT22;6979;52.116;5.286;2022-09-13T09:04:54;27.20;99.90
13817;DHT22;6979;52.116;5.286;2022-09-13T09:07:26;27.30;99.90
13817;DHT22;6979;52.116;5.286;2022-09-13T09:09:58;27.30;99.90
13817;DHT22;6979;52.116;5.286;2022-09-13T09:12:32;27.40;99.90
13817;DHT22;6979;52.116;5.286;2022-09-13T09:15:05;27.60;99.90
13817;DHT22;6979;52.116;5.286;2022-09-13T09:17:44;27.60;99.90
13817;DHT22;6979;52.116;5.286;2022-09-13T09:20:22;27.80;99.90
13817;DHT22;6979;52.116;5.286;2022-09-13T09:22:51;27.90;99.90
13817;DHT22;6979;52.116;5.286;2022-09-13T09:25:22;27.90;99.90
13817;DHT22;6979;52.116;5.286;2022-09-13T09:27:49;28.00;99.90
13817;DHT22;6979;52.116;5.286;2022-09-13T09:30:17;28.00;99.90
13817;DHT22;6979;52.116;5.286;2022-09-13T09:33:01;28.10;99.90
13817;DHT22;6979;52.116;5.286;2022-09-13T09:35:45;28.10;99.90
13817;DHT22;6979;52.116;5.286;2022-09-13T09:38:35;28.10;99.90
13817;DHT22;6979;52.116;5.286;2022-09-13T09:41:09;28.10;99.90
13817;DHT22;6979;52.116;5.286;2022-09-13T09:43:41;28.10;99.90
13817;DHT22;6979;52.116;5.286;2022-09-13T09:46:11;28.20;99.90
13817;DHT22;6979;52.116;5.286;2022-09-13T09:48:46;28.30;99.90
13817;DHT22;6979;52.116;5.286;2022-09-13T09:51:17;28.50;99.90
13817;DHT22;6979;52.116;5.286;2022-09-13T09:53:48;28.60;99.90
13817;DHT22;6979;52.116;5.286;2022-09-13T09:56:23;28.80;99.90
13817;DHT22;6979;52.116;5.286;2022-09-13T09:58:51;29.10;99.90
13817;DHT22;6979;52.116;5.286;2022-09-13T10:01:24;29.50;99.90
13817;DHT22;6979;52.116;5.286;2022-09-13T10:03:56;29.90;99.90
13817;DHT22;6979;52.116;5.286;2022-09-13T10:06:28;30.30;99.90
13817;DHT22;6979;52.116;5.286;2022-09-13T10:08:59;30.60;99.90
13817;DHT22;6979;52.116;5.286;2022-09-13T10:11:45;30.70;98.90
13817;DHT22;6979;52.116;5.286;2022-09-13T10:14:33;30.80;97.10
13817;DHT22;6979;52.116;5.286;2022-09-13T10:17:03;30.80;95.80
13817;DHT22;6979;52.116;5.286;2022-09-13T10:19:30;30.70;95.80
13817;DHT22;6979;52.116;5.286;2022-09-13T10:22:01;30.60;95.80
13817;DHT22;6979;52.116;5.286;2022-09-13T10:24:31;30.50;95.80
13817;DHT22;6979;52.116;5.286;2022-09-13T10:26:58;30.50;96.50
13817;DHT22;6979;52.116;5.286;2022-09-13T10:29:26;30.50;97.20
13817;DHT22;6979;52.116;5.286;2022-09-13T10:31:54;30.60;97.80
13817;DHT22;6979;52.116;5.286;2022-09-13T10:34:26;30.80;98.00
13817;DHT22;6979;52.116;5.286;2022-09-13T10:36:57;31.00;96.80
13817;DHT22;6979;52.116;5.286;2022-09-13T10:39:28;31.20;96.10
13817;DHT22;6979;52.116;5.286;2022-09-13T10:41:58;31.40;95.20
13817;DHT22;6979;52.116;5.286;2022-09-13T10:44:33;31.50;94.90
13817;DHT22;6979;52.116;5.286;2022-09-13T10:47:05;31.50;93.90
13817;DHT22;6979;52.116;5.286;2022-09-13T10:49:35;31.50;93.90
13817;DHT22;6979;52.116;5.286;2022-09-13T10:52:26;31.50;94.30
13817;DHT22;6979;52.116;5.286;2022-09-13T10:54:54;31.60;94.00
13817;DHT22;6979;52.116;5.286;2022-09-13T10:57:32;31.80;94.50
13817;DHT22;6979;52.116;5.286;2022-09-13T10:59:59;32.00;93.80
13817;DHT22;6979;52.116;5.286;2022-09-13T11:02:51;32.20;94.50
13817;DHT22;6979;52.116;5.286;2022-09-13T11:05:26;32.50;94.50
13817;DHT22;6979;52.116;5.286;2022-09-13T11:08:20;32.90;93.20
13817;DHT22;6979;52.116;5.286;2022-09-13T11:11:00;33.20;91.40
13817;DHT22;6979;52.116;5.286;2022-09-13T11:13:38;33.30;90.40
13817;DHT22;6979;52.116;5.286;2022-09-13T11:16:18;33.40;90.50
13817;DHT22;6979;52.116;5.286;2022-09-13T11:21:57;33.60;90.90
13817;DHT22;6979;52.116;5.286;2022-09-13T11:24:42;33.90;87.80
13817;DHT22;6979;52.116;5.286;2022-09-13T11:27:17;34.10;89.80
13817;DHT22;6979;52.116;5.286;2022-09-13T11:30:02;34.30;89.60
13817;DHT22;6979;52.116;5.286;2022-09-13T11:32:44;34.60;87.40
13817;DHT22;6979;52.116;5.286;2022-09-13T11:35:26;34.70;86.00
13817;DHT22;6979;52.116;5.286;2022-09-13T11:38:01;34.70;85.10
13817;DHT22;6979;52.116;5.286;2022-09-13T11:40:37;34.70;84.20
13817;DHT22;6979;52.116;5.286;2022-09-13T11:43:21;34.60;84.20
13817;DHT22;6979;52.116;5.286;2022-09-13T11:46:00;34.60;83.20
13817;DHT22;6979;52.116;5.286;2022-09-13T11:48:40;34.60;82.70
13817;DHT22;6979;52.116;5.286;2022-09-13T11:51:16;34.50;82.40
13817;DHT22;6979;52.116;5.286;2022-09-13T11:54:11;34.40;83.10
13817;DHT22;6979;52.116;5.286;2022-09-13T11:56:41;34.30;83.00
13817;DHT22;6979;52.116;5.286;2022-09-13T11:59:17;34.20;83.10
13817;DHT22;6979;52.116;5.286;2022-09-13T12:01:50;34.20;82.30
13817;DHT22;6979;52.116;5.286;2022-09-13T12:04:22;34.20;81.90
13817;DHT22;6979;52.116;5.286;2022-09-13T12:06:54;34.20;81.70
13817;DHT22;6979;52.116;5.286;2022-09-13T12:09:27;34.20;81.30
13817;DHT22;6979;52.116;5.286;2022-09-13T12:11:58;34.20;81.40
13817;DHT22;6979;52.116;5.286;2022-09-13T12:14:37;34.30;81.00
13817;DHT22;6979;52.116;5.286;2022-09-13T12:17:18;34.40;79.80
13817;DHT22;6979;52.116;5.286;2022-09-13T12:19:49;34.40;80.10
13817;DHT22;6979;52.116;5.286;2022-09-13T12:22:20;34.50;80.50
13817;DHT22;6979;52.116;5.286;2022-09-13T12:24:50;34.60;80.60
13817;DHT22;6979;52.116;5.286;2022-09-13T12:27:23;34.70;80.40
13817;DHT22;6979;52.116;5.286;2022-09-13T12:29:55;34.90;79.70
13817;DHT22;6979;52.116;5.286;2022-09-13T12:32:23;34.90;78.90
13817;DHT22;6979;52.116;5.286;2022-09-13T12:34:55;35.10;79.00
13817;DHT22;6979;52.116;5.286;2022-09-13T12:37:49;35.10;77.90
13817;DHT22;6979;52.116;5.286;2022-09-13T12:40:36;35.30;77.60
13817;DHT22;6979;52.116;5.286;2022-09-13T12:43:14;35.40;77.30
13817;DHT22;6979;52.116;5.286;2022-09-13T12:46:05;35.50;77.10
13817;DHT22;6979;52.116;5.286;2022-09-13T12:48:55;35.60;76.80
13817;DHT22;6979;52.116;5.286;2022-09-13T12:51:36;35.70;76.30
13817;DHT22;6979;52.116;5.286;2022-09-13T12:54:35;35.70;75.70
13817;DHT22;6979;52.116;5.286;2022-09-13T12:57:23;35.90;76.40
13817;DHT22;6979;52.116;5.286;2022-09-13T13:00:19;36.00;75.20
13817;DHT22;6979;52.116;5.286;2022-09-13T13:03:13;36.10;74.60
13817;DHT22;6979;52.116;5.286;2022-09-13T13:05:43;36.30;74.10
13817;DHT22;6979;52.116;5.286;2022-09-13T13:08:25;36.30;73.70
13817;DHT22;6979;52.116;5.286;2022-09-13T13:11:01;36.30;73.40
13817;DHT22;6979;52.116;5.286;2022-09-13T13:13:33;36.30;73.20
13817;DHT22;6979;52.116;5.286;2022-09-13T13:16:05;36.30;73.40
13817;DHT22;6979;52.116;5.286;2022-09-13T13:18:48;36.30;73.40
13817;DHT22;6979;52.116;5.286;2022-09-13T13:21:34;36.30;73.40
13817;DHT22;6979;52.116;5.286;2022-09-13T13:24:36;36.30;72.60
13817;DHT22;6979;52.116;5.286;2022-09-13T13:27:33;36.30;72.70
13817;DHT22;6979;52.116;5.286;2022-09-13T13:30:45;36.20;72.70
13817;DHT22;6979;52.116;5.286;2022-09-13T13:33:18;36.30;72.60
13817;DHT22;6979;52.116;5.286;2022-09-13T13:35:46;36.30;72.50
13817;DHT22;6979;52.116;5.286;2022-09-13T13:38:45;36.20;72.30
13817;DHT22;6979;52.116;5.286;2022-09-13T13:41:46;36.20;72.20
13817;DHT22;6979;52.116;5.286;2022-09-13T13:47:54;36.20;72.70
13817;DHT22;6979;52.116;5.286;2022-09-13T13:50:21;36.10;71.50
13817;DHT22;6979;52.116;5.286;2022-09-13T13:52:55;36.10;71.50
13817;DHT22;6979;52.116;5.286;2022-09-13T13:55:40;36.00;71.20
13817;DHT22;6979;52.116;5.286;2022-09-13T13:58:30;36.00;71.50
13817;DHT22;6979;52.116;5.286;2022-09-13T14:01:01;36.00;72.00
13817;DHT22;6979;52.116;5.286;2022-09-13T14:03:40;36.10;71.60
13817;DHT22;6979;52.116;5.286;2022-09-13T14:06:16;36.20;71.10
13817;DHT22;6979;52.116;5.286;2022-09-13T14:09:00;36.30;70.70
13817;DHT22;6979;52.116;5.286;2022-09-13T14:11:40;36.40;71.30
13817;DHT22;6979;52.116;5.286;2022-09-13T14:14:23;36.50;69.90
13817;DHT22;6979;52.116;5.286;2022-09-13T14:17:03;36.60;70.10
13817;DHT22;6979;52.116;5.286;2022-09-13T14:19:41;36.80;69.60
13817;DHT22;6979;52.116;5.286;2022-09-13T14:22:13;36.90;70.20
13817;DHT22;6979;52.116;5.286;2022-09-13T14:24:44;37.00;69.00
13817;DHT22;6979;52.116;5.286;2022-09-13T14:27:15;37.00;68.40
13817;DHT22;6979;52.116;5.286;2022-09-13T14:29:47;37.10;68.20
13817;DHT22;6979;52.116;5.286;2022-09-13T14:32:17;37.10;67.50
13817;DHT22;6979;52.116;5.286;2022-09-13T14:34:55;37.10;67.30
13817;DHT22;6979;52.116;5.286;2022-09-13T14:37:25;37.00;66.50
13817;DHT22;6979;52.116;5.286;2022-09-13T14:39:59;36.90;66.40
13817;DHT22;6979;52.116;5.286;2022-09-13T14:42:37;36.80;66.40
13817;DHT22;6979;52.116;5.286;2022-09-13T14:45:04;36.70;66.00
13817;DHT22;6979;52.116;5.286;2022-09-13T14:47:34;36.50;66.60
13817;DHT22;6979;52.116;5.286;2022-09-13T14:50:05;36.40;66.70
13817;DHT22;6979;52.116;5.286;2022-09-13T14:52:35;36.20;66.70
13817;DHT22;6979;52.116;5.286;2022-09-13T14:55:10;36.00;66.80
13817;DHT22;6979;52.116;5.286;2022-09-13T14:57:50;35.90;67.10
13817;DHT22;6979;52.116;5.286;2022-09-13T15:00:19;35.80;66.60
13817;DHT22;6979;52.116;5.286;2022-09-13T15:02:50;35.70;67.00
13817;DHT22;6979;52.116;5.286;2022-09-13T15:05:19;35.60;67.00
13817;DHT22;6979;52.116;5.286;2022-09-13T15:07:47;35.40;66.90
13817;DHT22;6979;52.116;5.286;2022-09-13T15:10:23;35.20;67.10
13817;DHT22;6979;52.116;5.286;2022-09-13T15:12:53;35.10;67.00
13817;DHT22;6979;52.116;5.286;2022-09-13T15:15:29;34.90;67.50
13817;DHT22;6979;52.116;5.286;2022-09-13T15:18:02;34.70;67.90
13817;DHT22;6979;52.116;5.286;2022-09-13T15:20:44;34.50;68.00
13817;DHT22;6979;52.116;5.286;2022-09-13T15:23:14;34.30;67.80
13817;DHT22;6979;52.116;5.286;2022-09-13T15:25:49;34.20;68.30
13817;DHT22;6979;52.116;5.286;2022-09-13T15:28:22;33.90;68.00
13817;DHT22;6979;52.116;5.286;2022-09-13T15:30:50;33.80;68.50
13817;DHT22;6979;52.116;5.286;2022-09-13T15:33:26;33.60;68.90
13817;DHT22;6979;52.116;5.286;2022-09-13T15:36:26;33.40;68.90
13817;DHT22;6979;52.116;5.286;2022-09-13T15:39:01;33.10;69.10
13817;DHT22;6979;52.116;5.286;2022-09-13T15:41:33;32.90;69.50
13817;DHT22;6979;52.116;5.286;2022-09-13T15:44:05;32.70;69.90
13817;DHT22;6979;52.116;5.286;2022-09-13T15:46:36;32.60;70.20
13817;DHT22;6979;52.116;5.286;2022-09-13T15:49:04;32.40;70.40
13817;DHT22;6979;52.116;5.286;2022-09-13T15:51:31;32.20;70.70
13817;DHT22;6979;52.116;5.286;2022-09-13T15:54:00;32.00;71.10
13817;DHT22;6979;52.116;5.286;2022-09-13T15:56:29;31.80;71.70
13817;DHT22;6979;52.116;5.286;2022-09-13T15:58:58;31.60;72.00
13817;DHT22;6979;52.116;5.286;2022-09-13T16:01:25;31.40;72.40
13817;DHT22;6979;52.116;5.286;2022-09-13T16:03:55;31.30;72.80
13817;DHT22;6979;52.116;5.286;2022-09-13T16:06:22;31.00;73.20
13817;DHT22;6979;52.116;5.286;2022-09-13T16:08:49;30.90;73.70
13817;DHT22;6979;52.116;5.286;2022-09-13T16:11:16;30.70;74.10
13817;DHT22;6979;52.116;5.286;2022-09-13T16:13:42;30.50;74.40
13817;DHT22;6979;52.116;5.286;2022-09-13T16:16:12;30.30;74.70
13817;DHT22;6979;52.116;5.286;2022-09-13T16:18:39;30.10;74.90
13817;DHT22;6979;52.116;5.286;2022-09-13T16:21:07;30.00;75.70
13817;DHT22;6979;52.116;5.286;2022-09-13T16:23:35;29.80;75.80
13817;DHT22;6979;52.116;5.286;2022-09-13T16:26:03;29.60;76.00
13817;DHT22;6979;52.116;5.286;2022-09-13T16:28:30;29.40;76.30
13817;DHT22;6979;52.116;5.286;2022-09-13T16:30:57;29.30;76.70
13817;DHT22;6979;52.116;5.286;2022-09-13T16:33:28;29.10;76.90
13817;DHT22;6979;52.116;5.286;2022-09-13T16:35:56;29.00;77.20
13817;DHT22;6979;52.116;5.286;2022-09-13T16:38:23;28.90;77.50